Time;durP1;ratioP1;P1;durP2;ratioP2;P2;SDS_P1;SDS_P2;PMS_P1;PMS_P2;Temp;Humidity;BMP_temperature;BMP_pressure;BME280_temperature;BME280_humidity;BME280_pressure;Samples;Min_cycle;Max_cycle;Signal;HPM_P1;HPM_P2
2022/12/01 00:02:06;;;;;;;57.90;30.50;;;1.60;99.90;;;;;;5095551;28;20027;-79
2022/12/01 00:04:32;;;;;;;60.70;31.87;;;1.60;99.90;;;;;;5095604;28;20040;-79
2022/12/01 00:06:57;;;;;;;62.10;32.03;;;1.60;99.90;;;;;;5095483;28;20095;-79
2022/12/01 00:12:07;;;;;;;58.77;31.20;;;1.60;99.90;;;;;;5095087;28;20109;-79
2022/12/01 00:14:32;;;;;;;57.67;29.87;;;1.50;99.90;;;;;;5095616;28;20024;-79
2022/12/01 00:16:58;;;;;;;57.80;30.57;;;1.50;99.90;;;;;;5095206;28;20115;-79
2022/12/01 00:19:25;;;;;;;62.53;32.23;;;1.50;99.90;;;;;;5095569;28;20085;-79
2022/12/01 00:21:50;;;;;;;65.77;33.83;;;1.50;99.90;;;;;;5095466;28;20031;-79
2022/12/01 00:24:16;;;;;;;66.70;33.40;;;1.50;99.90;;;;;;5095194;28;20020;-79
2022/12/01 00:26:42;;;;;;;64.53;32.77;;;1.40;99.90;;;;;;5095488;28;20020;-79
2022/12/01 00:29:07;;;;;;;65.63;33.97;;;1.40;99.90;;;;;;5095020;28;20488;-79
2022/12/01 00:31:33;;;;;;;65.47;34.93;;;1.50;99.90;;;;;;5095302;28;20462;-79
2022/12/01 00:33:59;;;;;;;72.70;34.97;;;1.50;99.90;;;;;;5095234;28;20084;-79
2022/12/01 00:36:24;;;;;;;71.70;35.33;;;1.50;99.90;;;;;;5094964;28;20412;-79
2022/12/01 00:38:52;;;;;;;72.13;34.43;;;1.50;99.90;;;;;;5094886;28;20412;-79
2022/12/01 00:41:18;;;;;;;62.00;32.47;;;1.50;99.90;;;;;;5095273;28;20103;-79
2022/12/01 00:43:44;;;;;;;70.20;34.17;;;1.50;99.90;;;;;;5095039;28;20465;-79
2022/12/01 00:46:09;;;;;;;67.10;33.23;;;1.50;99.90;;;;;;5094725;28;20027;-79
2022/12/01 00:48:35;;;;;;;69.33;34.57;;;1.50;99.90;;;;;;5094956;28;20523;-79
2022/12/01 00:51:01;;;;;;;62.20;32.70;;;1.40;99.90;;;;;;5094653;28;20353;-79
2022/12/01 00:53:26;;;;;;;68.37;33.00;;;1.50;99.90;;;;;;5095037;28;20054;-79
2022/12/01 00:55:52;;;;;;;62.93;33.73;;;1.50;99.90;;;;;;5094610;28;20056;-79
2022/12/01 00:58:18;;;;;;;65.17;33.23;;;1.50;99.90;;;;;;5094859;28;20031;-79
2022/12/01 01:00:44;;;;;;;65.23;34.37;;;1.50;99.90;;;;;;5094809;28;20024;-79
2022/12/01 01:03:10;;;;;;;72.37;34.70;;;1.50;99.90;;;;;;5094310;28;20066;-79
2022/12/01 01:05:40;;;;;;;66.40;32.17;;;1.40;99.90;;;;;;5094426;28;20028;-79
2022/12/01 01:08:11;;;;;;;68.67;33.97;;;1.50;99.90;;;;;;5094783;28;20020;-79
2022/12/01 01:10:41;;;;;;;64.37;33.00;;;1.40;99.90;;;;;;5094589;28;20043;-79
2022/12/01 01:13:08;;;;;;;64.70;33.10;;;1.40;99.90;;;;;;5094474;28;20016;-79
2022/12/01 01:15:33;;;;;;;67.10;33.17;;;1.40;99.90;;;;;;5094454;28;20024;-79
2022/12/01 01:18:00;;;;;;;67.47;33.57;;;1.40;99.90;;;;;;5094115;28;20063;-79
2022/12/01 01:20:25;;;;;;;68.37;34.60;;;1.40;99.90;;;;;;5094288;28;20028;-79
2022/12/01 01:22:51;;;;;;;66.83;33.87;;;1.30;99.90;;;;;;5093559;28;20021;-79
2022/12/01 01:25:16;;;;;;;64.83;34.40;;;1.30;99.90;;;;;;5094211;28;20024;-79
2022/12/01 01:27:42;;;;;;;73.37;35.77;;;1.30;99.90;;;;;;5094459;28;20024;-79
2022/12/01 01:30:08;;;;;;;72.93;35.93;;;1.30;99.90;;;;;;5094183;28;20034;-79
2022/12/01 01:32:33;;;;;;;73.73;36.73;;;1.30;99.90;;;;;;5093925;28;20370;-79
2022/12/01 01:34:59;;;;;;;67.80;34.00;;;1.30;99.90;;;;;;5094296;28;20085;-79
2022/12/01 01:37:25;;;;;;;70.70;34.93;;;1.30;99.90;;;;;;5093658;28;20085;-79
2022/12/01 01:39:50;;;;;;;66.83;34.53;;;1.30;99.90;;;;;;5093728;28;20030;-79
2022/12/01 01:42:18;;;;;;;72.97;35.87;;;1.30;99.90;;;;;;5093928;28;20109;-79
2022/12/01 01:44:49;;;;;;;73.77;36.07;;;1.30;99.90;;;;;;5093915;28;20019;-79
2022/12/01 01:47:39;;;;;;;67.70;34.77;;;1.30;99.90;;;;;;5093965;28;20028;-79
2022/12/01 01:50:08;;;;;;;75.87;36.73;;;1.30;99.90;;;;;;5088138;28;20036;-79
2022/12/01 01:52:39;;;;;;;70.00;32.80;;;1.30;99.90;;;;;;5094038;28;20124;-79
2022/12/01 01:55:05;;;;;;;72.53;34.70;;;1.30;99.90;;;;;;5094063;28;20422;-79
2022/12/01 01:57:32;;;;;;;73.40;35.60;;;1.30;99.90;;;;;;5093679;28;20020;-79
2022/12/01 02:00:08;;;;;;;74.30;34.17;;;1.30;99.90;;;;;;5093668;28;20448;-79
2022/12/01 02:02:39;;;;;;;76.60;35.30;;;1.30;99.90;;;;;;5093417;28;20016;-79
2022/12/01 02:05:09;;;;;;;77.43;36.33;;;1.30;99.90;;;;;;5093618;28;20099;-79
2022/12/01 02:07:37;;;;;;;78.67;34.60;;;1.40;99.90;;;;;;5093581;28;20467;-79
2022/12/01 02:10:04;;;;;;;83.37;35.53;;;1.40;99.90;;;;;;5093521;28;20157;-79
2022/12/01 02:12:46;;;;;;;79.03;35.07;;;1.40;99.90;;;;;;5094017;28;20035;-79
2022/12/01 02:15:18;;;;;;;84.63;35.93;;;1.40;99.90;;;;;;5093638;28;20330;-79
2022/12/01 02:18:14;;;;;;;78.17;33.63;;;1.40;99.90;;;;;;5093065;28;20051;-79
2022/12/01 02:20:47;;;;;;;82.78;35.00;;;1.40;99.90;;;;;;5093374;28;20036;-79
2022/12/01 02:23:19;;;;;;;82.93;35.50;;;1.40;99.90;;;;;;5093149;28;20016;-79
2022/12/01 02:25:57;;;;;;;83.53;33.93;;;1.30;99.90;;;;;;5093581;28;20098;-79
2022/12/01 02:28:28;;;;;;;87.93;38.23;;;1.40;99.90;;;;;;5093114;28;20028;-79
2022/12/01 02:31:15;;;;;;;89.07;35.47;;;1.40;99.90;;;;;;5093041;28;20028;-79
2022/12/01 02:33:59;;;;;;;89.30;35.30;;;1.40;99.90;;;;;;5094302;28;20558;-79
2022/12/01 02:36:47;;;;;;;86.23;34.67;;;1.30;99.90;;;;;;5097546;28;20030;-79
2022/12/01 02:39:22;;;;;;;84.37;34.33;;;1.40;99.90;;;;;;5097487;28;20024;-79
2022/12/01 02:42:03;;;;;;;82.90;34.92;;;1.40;99.90;;;;;;5097244;28;20112;-79
2022/12/01 02:44:32;;;;;;;86.33;34.90;;;1.40;99.90;;;;;;5097334;28;20034;-79
2022/12/01 02:47:18;;;;;;;87.67;37.17;;;1.50;99.90;;;;;;5096965;28;20128;-79
2022/12/01 02:49:50;;;;;;;84.13;34.87;;;1.40;99.90;;;;;;5097274;28;20024;-79
2022/12/01 02:52:17;;;;;;;88.30;35.27;;;1.40;99.90;;;;;;5096890;28;20085;-79
2022/12/01 02:54:44;;;;;;;86.60;36.40;;;1.50;99.90;;;;;;5097133;28;20028;-79
2022/12/01 02:57:14;;;;;;;94.40;37.43;;;1.50;99.90;;;;;;5096717;28;20380;-79
2022/12/01 02:59:48;;;;;;;94.90;39.03;;;1.50;99.90;;;;;;5097059;28;20440;-79
2022/12/01 03:02:26;;;;;;;96.40;39.63;;;1.50;99.90;;;;;;5096792;28;20072;-79
2022/12/01 03:05:03;;;;;;;89.03;37.97;;;1.60;99.90;;;;;;5097024;28;20024;-79
2022/12/01 03:07:52;;;;;;;96.53;38.70;;;1.60;99.90;;;;;;5095398;28;20032;-81
2022/12/01 03:10:41;;;;;;;97.83;41.17;;;1.50;99.90;;;;;;5093938;28;20066;-81
2022/12/01 03:13:07;;;;;;;100.60;39.60;;;1.50;99.90;;;;;;5093368;28;20476;-81
2022/12/01 03:15:55;;;;;;;100.80;39.83;;;1.50;99.90;;;;;;5093829;28;20024;-82
2022/12/01 03:18:29;;;;;;;102.97;39.90;;;1.50;99.90;;;;;;5093447;28;20066;-81
2022/12/01 03:21:09;;;;;;;96.97;39.70;;;1.60;99.90;;;;;;5093302;28;20479;-81
2022/12/01 03:23:45;;;;;;;104.60;41.47;;;1.50;99.90;;;;;;5093404;28;20069;-81
2022/12/01 03:26:19;;;;;;;102.73;39.63;;;1.60;99.90;;;;;;5093566;28;20545;-81
2022/12/01 03:28:59;;;;;;;102.03;40.23;;;1.60;99.90;;;;;;5093507;28;20135;-81
2022/12/01 03:31:29;;;;;;;109.80;41.90;;;1.60;99.90;;;;;;5093386;28;20106;-81
2022/12/01 03:34:02;;;;;;;101.00;40.93;;;1.60;99.90;;;;;;5093439;28;20310;-82
2022/12/01 03:36:38;;;;;;;106.70;41.57;;;1.60;99.90;;;;;;5093350;28;20383;-81
2022/12/01 03:39:11;;;;;;;107.10;43.30;;;1.60;99.90;;;;;;5093040;28;20024;-81
2022/12/01 03:41:46;;;;;;;105.63;40.90;;;1.50;99.90;;;;;;5093160;28;20024;-82
2022/12/01 03:44:20;;;;;;;100.18;40.83;;;1.60;99.90;;;;;;5093201;28;20119;-82
2022/12/01 03:47:28;;;;;;;95.23;37.67;;;1.60;99.90;;;;;;5072267;28;20385;-82
2022/12/01 03:49:55;;;;;;;95.80;40.23;;;1.60;99.90;;;;;;5065254;28;20036;-82
2022/12/01 03:52:30;;;;;;;113.80;43.57;;;1.60;99.90;;;;;;5072672;28;20036;-81
2022/12/01 03:55:17;;;;;;;98.33;42.40;;;1.60;99.90;;;;;;5072619;28;20056;-82
2022/12/01 03:57:57;;;;;;;87.60;37.63;;;1.60;99.90;;;;;;5070973;28;20031;-82
2022/12/01 04:00:23;;;;;;;92.43;37.77;;;1.60;99.90;;;;;;5072716;28;20024;-82
2022/12/01 04:02:55;;;;;;;103.43;41.73;;;1.60;99.90;;;;;;5072655;28;20581;-82
2022/12/01 04:05:21;;;;;;;98.83;39.30;;;1.60;99.90;;;;;;5072833;28;20021;-82
2022/12/01 04:07:46;;;;;;;101.27;40.80;;;1.70;99.90;;;;;;5072615;28;20037;-82
2022/12/01 04:10:12;;;;;;;96.27;40.47;;;1.70;99.90;;;;;;5072550;28;20021;-82
2022/12/01 04:12:37;;;;;;;88.37;37.77;;;1.70;99.90;;;;;;5087849;28;20028;-82
2022/12/01 04:15:07;;;;;;;96.43;38.10;;;1.70;99.90;;;;;;5092768;28;20093;-82
2022/12/01 04:17:33;;;;;;;102.17;40.97;;;1.60;99.90;;;;;;5091193;28;20123;-82
2022/12/01 04:19:59;;;;;;;90.77;39.00;;;1.70;99.90;;;;;;5092634;28;20182;-82
2022/12/01 04:22:25;;;;;;;92.53;38.30;;;1.70;99.90;;;;;;5092711;28;20389;-82
2022/12/01 04:24:51;;;;;;;93.33;40.90;;;1.70;99.90;;;;;;5092547;28;20020;-82
2022/12/01 04:27:17;;;;;;;97.93;40.70;;;1.70;99.90;;;;;;5092377;28;20085;-82
2022/12/01 04:29:42;;;;;;;88.27;40.33;;;1.70;99.90;;;;;;5092439;28;20016;-82
2022/12/01 04:32:08;;;;;;;101.93;40.13;;;1.80;99.90;;;;;;5092427;28;20103;-82
2022/12/01 04:34:34;;;;;;;89.50;38.17;;;1.80;99.90;;;;;;5092366;28;20091;-81
2022/12/01 04:36:59;;;;;;;82.20;38.03;;;1.80;99.90;;;;;;5092407;28;20092;-82
2022/12/01 04:39:25;;;;;;;96.40;40.63;;;1.70;99.90;;;;;;5093469;28;20031;-82
2022/12/01 04:41:50;;;;;;;98.13;42.27;;;1.80;99.90;;;;;;5092997;28;20028;-82
2022/12/01 04:44:16;;;;;;;93.30;37.53;;;1.70;99.90;;;;;;5092721;28;20035;-82
2022/12/01 04:46:42;;;;;;;88.83;37.27;;;1.80;99.90;;;;;;5093109;28;20384;-81
2022/12/01 04:49:08;;;;;;;87.70;38.97;;;1.80;99.90;;;;;;5092808;28;20023;-82
2022/12/01 04:51:33;;;;;;;80.23;37.37;;;1.80;99.90;;;;;;5092720;28;20619;-82
2022/12/01 04:54:01;;;;;;;85.47;40.83;;;1.80;99.90;;;;;;5091993;28;20137;-82
2022/12/01 04:56:26;;;;;;;88.37;41.23;;;1.80;99.90;;;;;;5091666;28;20105;-82
2022/12/01 04:58:52;;;;;;;89.60;38.77;;;1.80;99.90;;;;;;5090967;28;20078;-82
2022/12/01 05:01:17;;;;;;;87.17;40.93;;;1.80;99.90;;;;;;5091697;28;20519;-82
2022/12/01 05:03:45;;;;;;;90.77;42.07;;;1.80;99.90;;;;;;5091745;28;20031;-82
2022/12/01 05:06:17;;;;;;;90.03;40.00;;;1.80;99.90;;;;;;5091895;28;20028;-82
2022/12/01 05:08:43;;;;;;;84.37;37.93;;;1.80;99.90;;;;;;5091395;28;20102;-82
2022/12/01 05:11:11;;;;;;;87.80;39.20;;;1.80;99.90;;;;;;5091224;28;20153;-82
2022/12/01 05:13:38;;;;;;;89.63;39.60;;;1.80;99.90;;;;;;5091490;28;20020;-82
2022/12/01 05:16:17;;;;;;;90.20;39.70;;;1.80;99.90;;;;;;5091469;28;20449;-82
2022/12/01 05:18:47;;;;;;;90.63;39.87;;;1.90;99.90;;;;;;5091295;28;20044;-82
2022/12/01 05:21:13;;;;;;;92.27;40.90;;;1.80;99.90;;;;;;5110559;28;20024;-82
2022/12/01 05:23:38;;;;;;;88.17;40.37;;;1.90;99.90;;;;;;5111626;28;20751;-82
2022/12/01 05:26:06;;;;;;;83.97;37.87;;;1.90;99.90;;;;;;5104987;28;20417;-82
2022/12/01 05:28:32;;;;;;;91.33;39.73;;;1.90;99.90;;;;;;5091335;28;20109;-82
2022/12/01 05:30:58;;;;;;;91.50;40.23;;;1.90;99.90;;;;;;5093817;28;20051;-83
2022/12/01 05:33:25;;;;;;;91.37;41.30;;;1.90;99.90;;;;;;5101557;28;20024;-82
2022/12/01 05:35:51;;;;;;;88.30;36.53;;;1.90;99.90;;;;;;5097278;28;20468;-82
2022/12/01 05:38:17;;;;;;;85.60;37.80;;;1.80;99.90;;;;;;5111276;28;20034;-82
2022/12/01 05:40:52;;;;;;;95.97;40.77;;;1.90;99.90;;;;;;5111353;28;20061;-82
2022/12/01 05:43:18;;;;;;;85.78;37.75;;;1.90;99.90;;;;;;5107510;28;20016;-83
2022/12/01 05:45:44;;;;;;;98.70;44.97;;;1.90;99.90;;;;;;5091646;28;20036;-84
2022/12/01 05:48:10;;;;;;;87.83;39.60;;;1.90;99.90;;;;;;5091143;28;20032;-85
2022/12/01 05:50:38;;;;;;;90.03;40.03;;;1.90;99.90;;;;;;5091306;28;20546;-85
2022/12/01 05:53:04;;;;;;;93.50;38.00;;;1.90;99.90;;;;;;5091607;28;20090;-85
2022/12/01 05:55:31;;;;;;;87.07;39.33;;;1.90;99.90;;;;;;5091254;28;20514;-85
2022/12/01 05:57:57;;;;;;;84.37;36.80;;;1.90;99.90;;;;;;5091221;28;20380;-85
2022/12/01 06:00:23;;;;;;;89.97;39.60;;;1.90;99.90;;;;;;5091388;28;20017;-85
2022/12/01 06:02:48;;;;;;;86.43;37.60;;;1.90;99.90;;;;;;5091607;28;20430;-85
2022/12/01 06:05:14;;;;;;;82.53;36.30;;;1.90;99.90;;;;;;5091128;28;20376;-85
2022/12/01 06:07:39;;;;;;;87.60;36.63;;;1.90;99.90;;;;;;5093253;28;20028;-84
2022/12/01 06:10:06;;;;;;;80.73;36.33;;;1.90;99.90;;;;;;5090972;28;20035;-84
2022/12/01 06:12:32;;;;;;;80.90;35.77;;;1.90;99.90;;;;;;5090651;28;20069;-85
2022/12/01 06:14:58;;;;;;;84.20;38.97;;;1.90;99.90;;;;;;5090390;28;20032;-85
2022/12/01 06:17:23;;;;;;;86.07;38.33;;;2.00;99.90;;;;;;5090189;28;20079;-84
2022/12/01 06:19:50;;;;;;;86.53;37.97;;;1.90;99.90;;;;;;5090876;28;20136;-84
2022/12/01 06:22:15;;;;;;;80.07;35.57;;;2.00;99.90;;;;;;5089797;28;20103;-84
2022/12/01 06:24:41;;;;;;;82.70;37.57;;;2.00;99.90;;;;;;5091595;28;20032;-85
2022/12/01 06:27:06;;;;;;;73.23;33.63;;;2.00;99.90;;;;;;5090856;28;20469;-84
2022/12/01 06:29:32;;;;;;;71.60;34.63;;;2.00;99.90;;;;;;5090681;28;20039;-81
2022/12/01 06:31:57;;;;;;;74.77;32.87;;;2.00;99.90;;;;;;5091587;28;20521;-81
2022/12/01 06:34:23;;;;;;;72.50;34.17;;;2.00;99.90;;;;;;5110469;28;20020;-81
2022/12/01 06:36:49;;;;;;;74.37;35.10;;;2.00;99.90;;;;;;5110517;28;20110;-82
2022/12/01 06:39:15;;;;;;;65.83;32.03;;;2.00;99.90;;;;;;5110361;28;20024;-81
2022/12/01 06:41:41;;;;;;;73.43;34.73;;;2.00;99.90;;;;;;5110432;28;20063;-81
2022/12/01 06:44:07;;;;;;;71.83;34.40;;;2.00;99.90;;;;;;5099752;28;20063;-82
2022/12/01 06:46:33;;;;;;;74.60;34.83;;;2.00;99.90;;;;;;5087066;28;20127;-82
2022/12/01 06:48:58;;;;;;;70.07;32.53;;;2.00;99.90;;;;;;5091686;28;20185;-81
2022/12/01 06:51:24;;;;;;;68.83;33.40;;;2.00;99.90;;;;;;5088811;28;20024;-81
2022/12/01 06:53:56;;;;;;;71.00;32.77;;;2.00;99.90;;;;;;5089859;28;20042;-81
2022/12/01 06:56:22;;;;;;;70.70;32.63;;;2.00;99.90;;;;;;5089464;28;20077;-81
2022/12/01 06:58:49;;;;;;;72.83;34.50;;;2.10;99.90;;;;;;5090083;28;20028;-81
2022/12/01 07:01:15;;;;;;;65.30;32.67;;;2.10;99.90;;;;;;5089812;28;20025;-81
2022/12/01 07:03:41;;;;;;;68.40;31.63;;;2.10;99.90;;;;;;5088960;28;20103;-81
2022/12/01 07:06:07;;;;;;;74.40;34.33;;;2.10;99.90;;;;;;5088419;28;20020;-81
2022/12/01 07:08:33;;;;;;;69.43;34.00;;;2.10;99.90;;;;;;5089731;28;20450;-81
2022/12/01 07:11:04;;;;;;;73.30;34.97;;;2.10;99.90;;;;;;5094339;28;20039;-82
2022/12/01 07:13:30;;;;;;;76.33;34.03;;;2.10;99.90;;;;;;5088933;28;20086;-81
2022/12/01 07:15:56;;;;;;;74.93;35.00;;;2.20;99.90;;;;;;5091258;28;20027;-78
2022/12/01 07:18:22;;;;;;;68.20;32.33;;;2.20;99.90;;;;;;5092621;28;20048;-79
2022/12/01 07:20:47;;;;;;;67.33;31.40;;;2.20;99.90;;;;;;5093601;28;20134;-79
2022/12/01 07:23:13;;;;;;;69.73;32.83;;;2.20;99.90;;;;;;5096275;28;20020;-79
2022/12/01 07:25:39;;;;;;;74.20;34.70;;;2.20;99.90;;;;;;5096259;28;20085;-78
2022/12/01 07:28:04;;;;;;;76.20;32.30;;;2.20;99.90;;;;;;5096246;28;20372;-78
2022/12/01 07:30:30;;;;;;;66.53;31.97;;;2.20;99.90;;;;;;5096202;28;20027;-78
2022/12/01 07:32:55;;;;;;;65.20;31.33;;;2.20;99.90;;;;;;5094633;28;20031;-83
2022/12/01 07:35:21;;;;;;;69.43;32.83;;;2.30;99.90;;;;;;5093545;28;20031;-84
2022/12/01 07:37:47;;;;;;;74.37;33.03;;;2.30;99.90;;;;;;5094397;28;20357;-84
2022/12/01 07:40:13;;;;;;;82.47;35.37;;;2.30;99.90;;;;;;5092814;28;20035;-78
2022/12/01 07:42:41;;;;;;;85.10;34.27;;;2.30;99.90;;;;;;5096084;28;20023;-78
2022/12/01 07:45:07;;;;;;;91.23;38.00;;;2.30;99.90;;;;;;5094536;28;20012;-79
2022/12/01 07:47:33;;;;;;;80.90;35.87;;;2.30;99.90;;;;;;5085792;28;20103;-78
2022/12/01 07:49:58;;;;;;;88.73;37.20;;;2.20;99.90;;;;;;5087946;28;20028;-78
2022/12/01 07:52:24;;;;;;;91.73;36.67;;;2.20;99.90;;;;;;5095832;28;20031;-78
2022/12/01 07:54:49;;;;;;;86.17;38.10;;;2.30;99.90;;;;;;5095917;28;20024;-79
2022/12/01 07:57:17;;;;;;;84.60;38.00;;;2.20;99.90;;;;;;5095566;28;20028;-78
2022/12/01 07:59:42;;;;;;;79.30;36.90;;;2.30;99.90;;;;;;5095944;28;20021;-79
2022/12/01 08:02:09;;;;;;;75.67;34.87;;;2.30;99.90;;;;;;5095813;28;20050;-78
2022/12/01 08:04:35;;;;;;;82.53;35.07;;;2.30;99.90;;;;;;5095958;28;20050;-78
2022/12/01 08:07:00;;;;;;;74.73;33.70;;;2.30;99.90;;;;;;5094380;28;20110;-78
2022/12/01 08:09:26;;;;;;;76.17;33.70;;;2.40;99.90;;;;;;5095396;28;20032;-79
2022/12/01 08:11:52;;;;;;;77.43;35.83;;;2.40;99.90;;;;;;5095558;28;20028;-79
2022/12/01 08:14:17;;;;;;;76.40;33.63;;;2.40;99.90;;;;;;5095335;28;20085;-79
2022/12/01 08:16:43;;;;;;;68.50;33.53;;;2.40;99.90;;;;;;5093944;28;20476;-79
2022/12/01 08:19:11;;;;;;;77.13;34.33;;;2.40;99.90;;;;;;5095368;28;20504;-78
2022/12/01 08:21:37;;;;;;;69.87;32.17;;;2.50;99.90;;;;;;5095096;28;20453;-79
2022/12/01 08:24:03;;;;;;;70.10;33.37;;;2.50;99.90;;;;;;5093518;28;20018;-78
2022/12/01 08:26:29;;;;;;;72.80;34.37;;;2.50;99.90;;;;;;5094765;28;20048;-79
2022/12/01 08:28:56;;;;;;;94.73;42.03;;;2.50;99.90;;;;;;5095273;28;20063;-78
2022/12/01 08:31:31;;;;;;;92.03;40.40;;;2.50;99.90;;;;;;5094277;28;20024;-78
2022/12/01 08:33:57;;;;;;;79.65;35.42;;;2.60;99.90;;;;;;5094576;28;20023;-78
2022/12/01 08:36:24;;;;;;;62.50;29.63;;;2.60;99.90;;;;;;5094515;28;20056;-78
2022/12/01 08:38:52;;;;;;;82.17;38.73;;;2.60;99.90;;;;;;5094381;28;20040;-78
2022/12/01 08:41:18;;;;;;;60.27;31.03;;;2.70;99.90;;;;;;5094511;28;20024;-79
2022/12/01 08:43:44;;;;;;;58.33;28.93;;;2.70;99.90;;;;;;5094625;28;20099;-78
2022/12/01 08:46:14;;;;;;;84.37;38.60;;;2.70;99.90;;;;;;5094699;28;20028;-78
2022/12/01 08:48:39;;;;;;;60.77;31.03;;;2.70;99.90;;;;;;5094463;28;20481;-78
2022/12/01 08:51:14;;;;;;;60.20;30.17;;;2.70;99.90;;;;;;5094147;28;20055;-78
2022/12/01 08:53:44;;;;;;;61.22;29.80;;;2.80;99.90;;;;;;5092683;28;20089;-78
2022/12/01 08:56:23;;;;;;;64.83;32.13;;;2.80;99.90;;;;;;5094258;28;20509;-78
2022/12/01 08:58:51;;;;;;;77.80;35.03;;;2.80;99.90;;;;;;5094256;28;20032;-78
2022/12/01 09:01:17;;;;;;;65.07;32.50;;;2.90;99.90;;;;;;5094114;28;20032;-78
2022/12/01 09:03:43;;;;;;;62.77;29.43;;;2.90;99.90;;;;;;5094270;28;20024;-84
2022/12/01 09:06:14;;;;;;;54.83;28.93;;;2.90;99.90;;;;;;5092458;28;20112;-84
2022/12/01 09:08:41;;;;;;;62.97;29.23;;;2.90;99.90;;;;;;5093049;28;20385;-81
2022/12/01 09:11:10;;;;;;;62.07;29.83;;;2.90;99.90;;;;;;5094832;28;20360;-81
2022/12/01 09:13:38;;;;;;;57.40;28.63;;;2.90;99.90;;;;;;5094763;28;20329;-81
2022/12/01 09:16:10;;;;;;;52.80;25.47;;;2.90;99.90;;;;;;5094461;28;20024;-81
2022/12/01 09:18:35;;;;;;;49.03;24.57;;;3.00;99.90;;;;;;5094205;28;20396;-82
2022/12/01 09:21:19;;;;;;;57.90;31.03;;;3.00;99.90;;;;;;5094594;28;20058;-81
2022/12/01 09:23:45;;;;;;;42.70;21.87;;;3.10;99.90;;;;;;5093031;28;20020;-79
2022/12/01 09:26:12;;;;;;;47.60;24.63;;;3.10;99.90;;;;;;5093591;28;20016;-79
2022/12/01 09:28:37;;;;;;;53.70;27.23;;;3.10;99.90;;;;;;5093519;28;20036;-79
2022/12/01 09:31:04;;;;;;;43.77;25.33;;;3.10;99.90;;;;;;5093464;28;20024;-78
2022/12/01 09:33:30;;;;;;;46.47;22.60;;;3.10;99.90;;;;;;5093902;28;20123;-78
2022/12/01 09:36:00;;;;;;;42.30;21.97;;;3.10;99.90;;;;;;5093952;28;20051;-82
2022/12/01 09:38:28;;;;;;;44.37;23.00;;;3.10;99.90;;;;;;5094380;28;20071;-81
2022/12/01 09:40:54;;;;;;;43.57;22.47;;;3.10;99.90;;;;;;5094082;28;20091;-82
2022/12/01 09:43:24;;;;;;;41.50;22.60;;;3.10;99.90;;;;;;5093487;28;20020;-81
2022/12/01 09:45:54;;;;;;;39.53;20.33;;;3.10;99.90;;;;;;5094282;28;20035;-82
2022/12/01 09:48:28;;;;;;;40.30;20.87;;;3.10;99.90;;;;;;5093962;28;20032;-81
2022/12/01 09:50:54;;;;;;;41.40;23.00;;;3.10;99.90;;;;;;5092553;28;20388;-81
2022/12/01 09:53:25;;;;;;;43.33;23.80;;;3.10;99.90;;;;;;5094000;28;20024;-81
2022/12/01 09:55:51;;;;;;;42.43;22.20;;;3.00;99.90;;;;;;5093673;28;20020;-82
2022/12/01 09:58:23;;;;;;;36.60;19.30;;;3.10;99.90;;;;;;5093979;28;20031;-81
2022/12/01 10:00:50;;;;;;;36.87;20.27;;;3.10;99.90;;;;;;5093710;28;20411;-82
2022/12/01 10:03:39;;;;;;;38.30;20.93;;;3.20;99.90;;;;;;5093623;28;20486;-81
2022/12/01 10:06:15;;;;;;;36.70;20.47;;;3.20;99.90;;;;;;5093712;28;20020;-81
2022/12/01 10:08:55;;;;;;;37.27;19.37;;;3.20;99.90;;;;;;5090550;28;20028;-82
2022/12/01 10:11:32;;;;;;;37.90;20.97;;;3.30;99.90;;;;;;5093913;28;20034;-81
2022/12/01 10:13:59;;;;;;;38.07;18.77;;;3.30;99.90;;;;;;5093850;28;20031;-81
2022/12/01 10:16:34;;;;;;;34.93;19.13;;;3.40;99.90;;;;;;5093518;28;20031;-82
2022/12/01 10:19:11;;;;;;;35.38;18.20;;;3.30;99.90;;;;;;5094142;28;20032;-81
2022/12/01 10:22:02;;;;;;;33.57;18.00;;;3.30;99.90;;;;;;5093372;28;20452;-81
2022/12/01 10:25:01;;;;;;;34.60;18.83;;;3.30;99.90;;;;;;5093476;28;20020;-81
2022/12/01 10:27:51;;;;;;;30.53;17.17;;;3.30;99.90;;;;;;5092220;28;20024;-81
2022/12/01 10:30:21;;;;;;;41.37;22.17;;;3.30;99.90;;;;;;5091149;28;20064;-81
2022/12/01 10:33:01;;;;;;;33.67;18.07;;;3.30;99.90;;;;;;5091746;28;20076;-81
2022/12/01 10:35:34;;;;;;;34.03;19.03;;;3.30;99.90;;;;;;5098270;28;20043;-81
2022/12/01 10:38:03;;;;;;;31.27;18.20;;;3.30;99.90;;;;;;5113287;28;20035;-81
2022/12/01 10:40:33;;;;;;;38.03;19.93;;;3.40;99.90;;;;;;5113093;28;20047;-81
2022/12/01 10:42:59;;;;;;;38.10;18.87;;;3.40;99.90;;;;;;5114324;28;20429;-81
2022/12/01 10:45:32;;;;;;;36.03;19.93;;;3.40;99.90;;;;;;5113805;28;20111;-81
2022/12/01 10:48:17;;;;;;;39.70;20.73;;;3.40;99.90;;;;;;5100168;28;20036;-81
2022/12/01 10:50:45;;;;;;;32.17;18.77;;;3.40;99.90;;;;;;5092895;28;20107;-81
2022/12/01 10:53:29;;;;;;;37.07;19.63;;;3.40;99.90;;;;;;5092583;28;20032;-81
2022/12/01 10:56:13;;;;;;;29.97;17.43;;;3.50;99.90;;;;;;5095755;28;20036;-80
2022/12/01 10:58:42;;;;;;;42.67;22.97;;;3.50;99.90;;;;;;5096626;28;20042;-82
2022/12/01 11:01:16;;;;;;;42.37;23.53;;;3.60;99.90;;;;;;5102023;28;20050;-80
2022/12/01 11:03:48;;;;;;;53.90;29.23;;;3.60;99.90;;;;;;5116615;28;20030;-81
2022/12/01 11:06:19;;;;;;;41.97;22.33;;;3.60;99.90;;;;;;5114628;28;20383;-80
2022/12/01 11:08:51;;;;;;;41.57;21.63;;;3.70;99.90;;;;;;5114592;28;20472;-81
2022/12/01 11:11:38;;;;;;;43.57;23.20;;;3.80;99.90;;;;;;5113815;28;20028;-81
2022/12/01 11:14:25;;;;;;;37.40;20.70;;;3.90;99.90;;;;;;5113860;28;20031;-81
2022/12/01 11:16:52;;;;;;;37.50;20.23;;;3.90;99.90;;;;;;5111092;28;20539;-81
2022/12/01 11:19:27;;;;;;;37.30;20.93;;;4.00;99.90;;;;;;5093278;28;20059;-81
2022/12/01 11:21:59;;;;;;;43.47;23.48;;;4.00;99.90;;;;;;5073225;28;20024;-81
2022/12/01 11:24:54;;;;;;;45.37;24.77;;;4.00;99.90;;;;;;5073160;28;20033;-81
2022/12/01 11:27:23;;;;;;;52.42;27.13;;;3.90;99.90;;;;;;5087158;28;20038;-81
2022/12/01 11:29:53;;;;;;;66.93;29.87;;;3.90;99.90;;;;;;5093522;28;20369;-81
2022/12/01 11:32:30;;;;;;;267.90;99.23;;;3.80;99.90;;;;;;5093314;28;20468;-81
2022/12/01 11:35:01;;;;;;;52.03;26.17;;;3.80;99.90;;;;;;5093628;28;20099;-81
2022/12/01 11:37:33;;;;;;;43.33;23.03;;;3.70;99.90;;;;;;5093269;28;20066;-81
2022/12/01 11:40:20;;;;;;;40.10;21.87;;;3.70;99.90;;;;;;5093430;28;20032;-81
2022/12/01 11:42:49;;;;;;;36.97;20.87;;;3.70;99.90;;;;;;5095601;28;20411;-82
2022/12/01 11:45:21;;;;;;;40.57;21.77;;;3.80;99.90;;;;;;5093446;28;20023;-82
2022/12/01 11:48:04;;;;;;;35.47;19.63;;;3.80;99.90;;;;;;5093126;28;20020;-82
2022/12/01 11:50:35;;;;;;;42.13;21.77;;;3.80;99.90;;;;;;5093036;28;20063;-82
2022/12/01 11:53:01;;;;;;;37.80;20.50;;;3.80;99.90;;;;;;5088904;28;20081;-82
2022/12/01 11:55:28;;;;;;;39.53;22.00;;;3.90;99.90;;;;;;5073064;28;20115;-82
2022/12/01 11:57:59;;;;;;;40.77;22.93;;;3.80;99.90;;;;;;5072737;28;20021;-82
2022/12/01 12:00:27;;;;;;;36.83;20.27;;;3.80;99.90;;;;;;5085713;28;20074;-81
2022/12/01 12:03:28;;;;;;;38.30;21.50;;;3.80;99.90;;;;;;5072154;28;20028;-82
2022/12/01 12:06:17;;;;;;;41.43;20.67;;;3.80;99.90;;;;;;5063076;28;20039;-81
2022/12/01 12:09:01;;;;;;;37.17;20.50;;;3.70;99.90;;;;;;5081017;28;20059;-82
2022/12/01 12:11:40;;;;;;;39.30;21.20;;;3.60;99.90;;;;;;5092156;28;20024;-82
2022/12/01 12:14:45;;;;;;;38.17;20.70;;;3.60;99.90;;;;;;5093006;28;20039;-82
2022/12/01 12:17:41;;;;;;;35.67;20.70;;;3.60;99.90;;;;;;5078336;28;20051;-82
2022/12/01 12:20:20;;;;;;;42.60;22.30;;;3.60;99.90;;;;;;5072461;28;20358;-82
2022/12/01 12:23:03;;;;;;;40.83;22.37;;;3.60;99.90;;;;;;5072098;28;20048;-82
2022/12/01 12:25:50;;;;;;;43.70;21.60;;;3.60;99.90;;;;;;5072028;28;20107;-82
2022/12/01 12:28:41;;;;;;;39.77;22.03;;;3.50;99.90;;;;;;5089293;28;20024;-82
2022/12/01 12:31:33;;;;;;;42.77;22.43;;;3.60;99.90;;;;;;5092676;28;20047;-82
2022/12/01 12:34:11;;;;;;;38.63;20.87;;;3.50;99.90;;;;;;5092286;28;20362;-82
2022/12/01 12:37:02;;;;;;;38.73;20.77;;;3.50;99.90;;;;;;5107631;28;20126;-82
2022/12/01 12:39:34;;;;;;;39.20;21.83;;;3.60;99.90;;;;;;5095751;28;20598;-83
2022/12/01 12:42:07;;;;;;;35.20;20.50;;;3.60;99.90;;;;;;5099836;28;20068;-81
2022/12/01 12:44:46;;;;;;;39.03;20.97;;;3.60;99.90;;;;;;5097333;28;20028;-82
2022/12/01 12:47:57;;;;;;;40.20;21.47;;;3.60;99.90;;;;;;5092125;28;20024;-82
2022/12/01 12:51:17;;;;;;;43.93;21.93;;;3.60;99.90;;;;;;5080061;28;20082;-81
2022/12/01 12:54:12;;;;;;;40.53;22.33;;;3.70;99.90;;;;;;5029438;28;20083;-81
2022/12/01 12:56:43;;;;;;;37.93;21.73;;;3.60;99.90;;;;;;5089892;28;20141;-82
2022/12/01 12:59:29;;;;;;;39.60;22.43;;;3.60;99.90;;;;;;5091636;28;20070;-81